Palflot-5 — UBHC — position and weather

sailwx.info

Track history (hours):
 
Tides and Currents Weather Stations Pressure Air Temp Water Temp Dewpoint Dewpoint Depression Visibility Wind Speed Wind Dir Waves Ship Positions

Palflot-5

Last reported at 2017-Sep-21 23:50 UTC. Time now 2017-Sep-23 14:56 UTC.
Position N 45°14' E 036°30'.

Length 122 m; draft 2.4 m.

Type: Tanker. MMSI: 273443040.

Date/timePositionNaut miles runAvg speedWind from/ knotsBaromVisibWave heightAir tempDewpointWater temp
2017-Sep-21 23:50N 45°14' E 036°30'0 0.0
2017-Sep-21 23:29N 45°14' E 036°30'0 0.0
2017-Sep-21 21:47N 45°14' E 036°30'0 0.0
2017-Sep-21 21:20N 45°14' E 036°30'0 0.1
2017-Sep-21 21:01N 45°14' E 036°30'3 3.5
2017-Sep-21 20:03N 45°11' E 036°29'5 4.3
2017-Sep-21 18:53N 45°06' E 036°30'3 4.3
2017-Sep-21 18:08N 45°03' E 036°30'1 4.4
2017-Sep-21 17:58N 45°02' E 036°31'11 1.8
2017-Sep-21 11:36N 44°52' E 036°37'1 5.9
2017-Sep-21 11:31N 44°52' E 036°38'1 1.6
2017-Sep-21 10:39N 44°53' E 036°39'0 0.0
2017-Sep-21 10:21N 44°53' E 036°39'0 0.0
2017-Sep-21 10:01N 44°53' E 036°39'2 0.1
2017-Sep-20 15:34N 44°54' E 036°37'1 6.5
2017-Sep-20 15:21N 44°55' E 036°36'2 6.6
2017-Sep-20 15:00N 44°56' E 036°34'9 6.1
2017-Sep-20 13:33N 45°05' E 036°30'2 6.7
2017-Sep-20 13:11N 45°07' E 036°29'2 6.7
2017-Sep-20 12:55N 45°09' E 036°29'3 6.6
2017-Sep-20 12:31N 45°11' E 036°28'3 6.4
2017-Sep-20 11:58N 45°15' E 036°28'3 6.3
2017-Sep-20 11:27N 45°18' E 036°29'3 6.2
2017-Sep-20 11:00N 45°19' E 036°33'3 6.1
2017-Sep-20 10:31N 45°20' E 036°37'3 5.7
2017-Sep-20 10:01N 45°22' E 036°40'3 6.1
2017-Sep-20 09:31N 45°25' E 036°41'3 5.8
2017-Sep-20 09:01N 45°27' E 036°43'5 6.2
2017-Sep-20 08:10N 45°30' E 036°50'0 1.2
2017-Sep-20 08:00N 45°30' E 036°50'0 0.1
2017-Sep-20 07:22N 45°30' E 036°50'0 0.0
2017-Sep-20 06:58N 45°30' E 036°50'0 0.0
2017-Sep-20 06:17N 45°30' E 036°50'0 0.0
2017-Sep-20 05:53N 45°30' E 036°50'0 0.0
2017-Sep-20 04:29N 45°30' E 036°50'0 0.1
2017-Sep-20 03:32N 45°30' E 036°50'0 2.5
2017-Sep-20 03:30N 45°30' E 036°50'  
2017-Sep-15 15:45N 45°43' E 036°55'5 6.6
2017-Sep-15 14:59N 45°38' E 036°52'3 6.6
2017-Sep-15 14:30N 45°35' E 036°51'5 6.4
2017-Sep-15 13:38N 45°31' E 036°46'2 6.3
2017-Sep-15 13:20N 45°30' E 036°44'2 6.3
2017-Sep-15 13:00N 45°28' E 036°42'3 6.5
2017-Sep-15 12:30N 45°25' E 036°41'3 6.1
2017-Sep-15 12:00N 45°22' E 036°40'3 5.0
2017-Sep-15 11:30N 45°20' E 036°37'3 5.4
2017-Sep-15 11:00N 45°19' E 036°34'3 5.8
2017-Sep-15 10:29N 45°18' E 036°30'3 5.7
2017-Sep-15 10:00N 45°16' E 036°29'2 4.2
2017-Sep-15 09:28N 45°14' E 036°30'11 1.0
2017-Sep-14 21:44N 45°02' E 036°31'16 0.3
2017-Sep-12 20:32N 45°18' E 036°29'1 5.0
2017-Sep-12 20:26N 45°18' E 036°30'2 4.9
2017-Sep-12 20:00N 45°19' E 036°33'2 4.6
2017-Sep-12 19:30N 45°20' E 036°36'2 4.6
2017-Sep-12 19:00N 45°21' E 036°39'2 4.1
2017-Sep-12 18:30N 45°22' E 036°40'3 5.3
2017-Sep-12 18:00N 45°25' E 036°41'3 5.2
2017-Sep-12 17:30N 45°27' E 036°43'5 0.8
2017-Sep-12 11:18N 45°29' E 036°49'0 0.0
2017-Sep-12 08:24N 45°29' E 036°49'0 0.0
2017-Sep-12 05:51N 45°29' E 036°49'1 2.6
2017-Sep-12 05:26N 45°29' E 036°48'3 4.8
2017-Sep-12 04:53N 45°31' E 036°45'22 6.2
2017-Sep-12 01:19N 45°52' E 036°54'  
Track history (hours):
 
Tides and Currents Weather Stations Pressure Air Temp Water Temp Dewpoint Dewpoint Depression Visibility Wind Speed Wind Dir Waves Ship Positions

Palflot-5

Last reported at 2017-Sep-21 23:50 UTC. Time now 2017-Sep-23 14:56 UTC.
Position N 45°14' E 036°30'.

Length 122 m; draft 2.4 m.

Type: Tanker. MMSI: 273443040.

Date/timePositionNaut miles runAvg speedWind from/ knotsBaromVisibWave heightAir tempDewpointWater temp
2017-Sep-21 23:50N 45°14' E 036°30'0 0.0
2017-Sep-21 23:29N 45°14' E 036°30'0 0.0
2017-Sep-21 21:47N 45°14' E 036°30'0 0.0
2017-Sep-21 21:20N 45°14' E 036°30'0 0.1
2017-Sep-21 21:01N 45°14' E 036°30'3 3.5
2017-Sep-21 20:03N 45°11' E 036°29'5 4.3
2017-Sep-21 18:53N 45°06' E 036°30'3 4.3
2017-Sep-21 18:08N 45°03' E 036°30'1 4.4
2017-Sep-21 17:58N 45°02' E 036°31'11 1.8
2017-Sep-21 11:36N 44°52' E 036°37'1 5.9
2017-Sep-21 11:31N 44°52' E 036°38'1 1.6
2017-Sep-21 10:39N 44°53' E 036°39'0 0.0
2017-Sep-21 10:21N 44°53' E 036°39'0 0.0
2017-Sep-21 10:01N 44°53' E 036°39'2 0.1
2017-Sep-20 15:34N 44°54' E 036°37'1 6.5
2017-Sep-20 15:21N 44°55' E 036°36'2 6.6
2017-Sep-20 15:00N 44°56' E 036°34'9 6.1
2017-Sep-20 13:33N 45°05' E 036°30'2 6.7
2017-Sep-20 13:11N 45°07' E 036°29'2 6.7
2017-Sep-20 12:55N 45°09' E 036°29'3 6.6
2017-Sep-20 12:31N 45°11' E 036°28'3 6.4
2017-Sep-20 11:58N 45°15' E 036°28'3 6.3
2017-Sep-20 11:27N 45°18' E 036°29'3 6.2
2017-Sep-20 11:00N 45°19' E 036°33'3 6.1
2017-Sep-20 10:31N 45°20' E 036°37'3 5.7
2017-Sep-20 10:01N 45°22' E 036°40'3 6.1
2017-Sep-20 09:31N 45°25' E 036°41'3 5.8
2017-Sep-20 09:01N 45°27' E 036°43'5 6.2
2017-Sep-20 08:10N 45°30' E 036°50'0 1.2
2017-Sep-20 08:00N 45°30' E 036°50'0 0.1
2017-Sep-20 07:22N 45°30' E 036°50'0 0.0
2017-Sep-20 06:58N 45°30' E 036°50'0 0.0
2017-Sep-20 06:17N 45°30' E 036°50'0 0.0
2017-Sep-20 05:53N 45°30' E 036°50'0 0.0
2017-Sep-20 04:29N 45°30' E 036°50'0 0.1
2017-Sep-20 03:32N 45°30' E 036°50'0 2.5
2017-Sep-20 03:30N 45°30' E 036°50'  
2017-Sep-15 15:45N 45°43' E 036°55'5 6.6
2017-Sep-15 14:59N 45°38' E 036°52'3 6.6
2017-Sep-15 14:30N 45°35' E 036°51'5 6.4
2017-Sep-15 13:38N 45°31' E 036°46'2 6.3
2017-Sep-15 13:20N 45°30' E 036°44'2 6.3
2017-Sep-15 13:00N 45°28' E 036°42'3 6.5
2017-Sep-15 12:30N 45°25' E 036°41'3 6.1
2017-Sep-15 12:00N 45°22' E 036°40'3 5.0
2017-Sep-15 11:30N 45°20' E 036°37'3 5.4
2017-Sep-15 11:00N 45°19' E 036°34'3 5.8
2017-Sep-15 10:29N 45°18' E 036°30'3 5.7
2017-Sep-15 10:00N 45°16' E 036°29'2 4.2
2017-Sep-15 09:28N 45°14' E 036°30'11 1.0
2017-Sep-14 21:44N 45°02' E 036°31'16 0.3
2017-Sep-12 20:32N 45°18' E 036°29'1 5.0
2017-Sep-12 20:26N 45°18' E 036°30'2 4.9
2017-Sep-12 20:00N 45°19' E 036°33'2 4.6
2017-Sep-12 19:30N 45°20' E 036°36'2 4.6
2017-Sep-12 19:00N 45°21' E 036°39'2 4.1
2017-Sep-12 18:30N 45°22' E 036°40'3 5.3
2017-Sep-12 18:00N 45°25' E 036°41'3 5.2
2017-Sep-12 17:30N 45°27' E 036°43'5 0.8
2017-Sep-12 11:18N 45°29' E 036°49'0 0.0
2017-Sep-12 08:24N 45°29' E 036°49'0 0.0
2017-Sep-12 05:51N 45°29' E 036°49'1 2.6
2017-Sep-12 05:26N 45°29' E 036°48'3 4.8
2017-Sep-12 04:53N 45°31' E 036°45'22 6.2
2017-Sep-12 01:19N 45°52' E 036°54'  

Dump ship's entire track history